Xiamen, Fujian

6:26 AM CST on February 14, 2016 (GMT +0800)
NanShan Xiamen | | Change Station
CLOSE
Current Station
Personal Weather Station
Location: 厦门市, 福建省
Elevation: 144 ft
Nearby Weather Stations

Elev 144 ft 24.51 °N, 118.12 °E | Updated 0 second ago

Overcast
Overcast
64.9 °F
Feels Like 64.9 °F
N
0.0
Wind Variable Wind from SSE
Gusts 0.0 mph

Today
High -- | Low -- °F
--% Chance of Precip.
Yesterday
High -- | Low -- °F
Precip. -- in
Pressure 29.89 in
Visibility 0.6 miles
Clouds Scattered Clouds 200 ft
Mostly Cloudy 500 ft
Overcast 2300 ft
Dew Point 65 °F
Humidity 99%
Rainfall 0.00 in
Snow Depth Not available.
6:42 AM 6:01 PM
Waxing Crescent, 34% visible
METAR ZSAM 132200Z 12002MPS 1000 R05/P2000N BR SCT002 BKN005 OVC023 18/18 Q1012 BECMG TL2350 1500
Pressure 29.89 in
Visibility 0.6 miles
Clouds Scattered Clouds 200 ft
Mostly Cloudy 500 ft
Overcast 2300 ft
Dew Point 65 °F
Humidity 99%
Rainfall 0.00 in
Snow Depth Not available.
6:42 AM 6:01 PM
Waxing Crescent, 34% visible
METAR ZSAM 132200Z 12002MPS 1000 R05/P2000N BR SCT002 BKN005 OVC023 18/18 Q1012 BECMG TL2350 1500

10-Day Weather Forecast

No radar image for this location.
×

Almanac

Astronomy

Feb. 14, 2016 Rise Set
Actual Time
Civil Twilight
Nautical Twilight
Astronomical Twilight
Moon
Length of Visible Light
Length of Day
Tomorrow will be .
, % of the Moon is Illuminated

Today's Extremes

Country Highs Country Lows

Community

WunderPhotos

Upload Photos

1,892,688 photos uploaded!

WunderBlog® & News

Nearby

Air Quality

  Air Quality AQ Index Pollutant
Not available.

Snow Depth

Station Depth Elevation

Earthquake Activity

City Distance Mag. Time & Date
Minimum magnitude displayed is 2.5.

Coastal Water Temperatures

Place Temperature

Stations

Nearby Weather Stations

Station Location Temp. Windchill Dew Point Humidity Wind Precip. Elev Updated Type